Time;durP1;ratioP1;P1;durP2;ratioP2;P2;SDS_P1;SDS_P2;PMS_P1;PMS_P2;Temp;Humidity;BMP_temperature;BMP_pressure;BME280_temperature;BME280_humidity;BME280_pressure;Samples;Min_cycle;Max_cycle;Signal;HPM_P1;HPM_P2
2024/02/17 00:01:35;;;;;;;9.75;5.82;;;5.60;65.10;;;;;;5093580;28;20028;-84
2024/02/17 00:04:01;;;;;;;6.75;4.97;;;5.60;65.10;;;;;;5093465;28;20595;-85
2024/02/17 00:06:27;;;;;;;7.40;5.18;;;5.60;65.10;;;;;;5074947;28;20047;-84
2024/02/17 00:08:53;;;;;;;9.43;5.47;;;5.60;65.20;;;;;;5076913;28;20039;-83
2024/02/17 00:11:19;;;;;;;8.80;5.05;;;5.60;65.30;;;;;;5093069;28;20051;-82
2024/02/17 00:13:45;;;;;;;8.18;5.18;;;5.60;65.20;;;;;;5075987;28;20521;-82
2024/02/17 00:16:11;;;;;;;6.85;4.93;;;5.60;65.10;;;;;;5076707;28;20059;-83
2024/02/17 00:18:37;;;;;;;6.13;4.57;;;5.60;65.30;;;;;;5077185;28;20039;-83
2024/02/17 00:21:03;;;;;;;7.50;5.20;;;5.60;65.10;;;;;;5076929;28;20039;-83
2024/02/17 00:23:30;;;;;;;8.25;4.93;;;5.60;65.10;;;;;;5076566;28;20077;-81
2024/02/17 00:25:56;;;;;;;7.60;5.43;;;5.60;65.40;;;;;;5076274;28;20071;-82
2024/02/17 00:28:26;;;;;;;7.88;4.97;;;5.60;65.10;;;;;;5043527;28;20063;-87
2024/02/17 00:30:53;;;;;;;6.40;5.28;;;5.60;65.20;;;;;;5078450;28;20141;-92
2024/02/17 00:33:19;;;;;;;8.30;5.43;;;5.60;65.00;;;;;;5078056;28;20044;-92
2024/02/17 00:35:45;;;;;;;7.55;4.90;;;5.60;64.90;;;;;;5092951;28;20036;-88
2024/02/17 00:38:11;;;;;;;8.10;5.03;;;5.60;65.00;;;;;;5078095;28;20060;-90
2024/02/17 00:40:39;;;;;;;7.78;4.80;;;5.60;65.00;;;;;;5095227;28;20055;-90
2024/02/17 00:43:05;;;;;;;9.90;5.30;;;5.60;64.90;;;;;;5080754;28;20289;-89
2024/02/17 00:45:31;;;;;;;9.70;5.65;;;5.60;65.00;;;;;;5076294;28;20028;-85
2024/02/17 00:47:57;;;;;;;7.20;4.80;;;5.60;64.90;;;;;;5091872;28;20414;-84
2024/02/17 00:50:23;;;;;;;8.30;5.22;;;5.60;64.90;;;;;;5076932;28;20032;-83
2024/02/17 00:52:52;;;;;;;7.97;5.22;;;5.60;64.90;;;;;;5065035;28;20040;-83
2024/02/17 00:55:19;;;;;;;11.23;5.57;;;5.60;64.90;;;;;;5073730;28;20401;-87
2024/02/17 00:57:45;;;;;;;7.90;5.07;;;5.60;64.90;;;;;;5098544;28;20422;-88
2024/02/17 01:00:11;;;;;;;9.23;5.63;;;5.60;65.00;;;;;;5083811;28;20039;-88
2024/02/17 01:02:37;;;;;;;8.95;5.25;;;5.60;64.90;;;;;;5096526;28;20089;-86
2024/02/17 01:05:04;;;;;;;7.95;5.57;;;5.60;65.00;;;;;;5058151;28;20445;-86
2024/02/17 01:07:30;;;;;;;9.50;5.63;;;5.60;65.30;;;;;;5075828;28;20403;-87
2024/02/17 01:09:56;;;;;;;7.43;5.20;;;5.50;65.00;;;;;;5077254;28;20035;-85
2024/02/17 01:12:24;;;;;;;7.85;4.90;;;5.60;65.10;;;;;;5060632;28;20047;-86
2024/02/17 01:14:50;;;;;;;8.75;5.43;;;5.60;65.00;;;;;;5078165;28;20063;-89
2024/02/17 01:17:16;;;;;;;8.25;5.25;;;5.60;64.90;;;;;;5075321;28;20051;-88
2024/02/17 01:19:43;;;;;;;8.15;4.93;;;5.60;65.10;;;;;;5058582;28;20036;-87
2024/02/17 01:22:09;;;;;;;7.70;5.32;;;5.60;64.90;;;;;;5075465;28;20031;-87
2024/02/17 01:24:35;;;;;;;8.52;5.45;;;5.60;64.90;;;;;;5080393;28;20085;-89
2024/02/17 01:27:06;;;;;;;9.70;5.55;;;5.60;65.10;;;;;;5075298;28;20032;-86
2024/02/17 01:29:32;;;;;;;8.90;5.30;;;5.60;65.10;;;;;;5092163;28;20024;-85
2024/02/17 01:31:58;;;;;;;9.02;5.85;;;5.60;65.00;;;;;;5092824;28;20108;-88
2024/02/17 01:34:24;;;;;;;6.93;4.93;;;5.60;65.30;;;;;;5076344;28;20483;-86
2024/02/17 01:36:50;;;;;;;7.18;5.15;;;5.60;65.10;;;;;;5093063;28;20024;-88
2024/02/17 01:39:16;;;;;;;7.60;4.75;;;5.50;65.20;;;;;;5058350;28;20036;-89
2024/02/17 01:41:42;;;;;;;10.23;6.45;;;5.50;65.10;;;;;;5091746;28;20047;-86
2024/02/17 01:44:09;;;;;;;7.72;5.28;;;5.60;65.10;;;;;;5074363;28;20028;-85
2024/02/17 01:46:35;;;;;;;10.65;6.05;;;5.60;65.10;;;;;;5091156;28;20024;-84
2024/02/17 01:49:01;;;;;;;8.20;5.30;;;5.60;65.10;;;;;;5093357;28;20509;-84
2024/02/17 01:51:28;;;;;;;9.20;5.45;;;5.60;65.10;;;;;;5075834;28;20044;-84
2024/02/17 01:53:54;;;;;;;8.25;5.50;;;5.60;65.10;;;;;;5092361;28;20028;-84
2024/02/17 01:56:21;;;;;;;9.35;5.63;;;5.60;65.10;;;;;;5045000;28;20493;-85
2024/02/17 01:58:55;;;;;;;9.32;5.40;;;5.60;65.20;;;;;;5051267;28;20120;-86
2024/02/17 02:01:21;;;;;;;9.30;5.78;;;5.60;65.20;;;;;;5076486;28;20067;-85
2024/02/17 02:03:47;;;;;;;7.95;5.72;;;5.60;65.10;;;;;;5048797;28;20040;-86
2024/02/17 02:06:15;;;;;;;9.02;5.30;;;5.60;65.10;;;;;;5072683;28;20059;-86
2024/02/17 02:08:41;;;;;;;6.97;4.80;;;5.60;65.10;;;;;;5075341;28;20097;-86
2024/02/17 02:11:07;;;;;;;10.00;5.97;;;5.60;65.10;;;;;;5079096;28;20039;-87
2024/02/17 02:13:36;;;;;;;8.85;5.68;;;5.60;65.00;;;;;;5076191;28;20525;-89
2024/02/17 02:16:02;;;;;;;12.45;5.38;;;5.60;65.10;;;;;;5074676;28;20991;-89
2024/02/17 02:18:28;;;;;;;7.55;5.50;;;5.60;65.00;;;;;;5097047;28;20627;-88
2024/02/17 02:20:54;;;;;;;6.15;4.60;;;5.60;65.10;;;;;;5062194;28;20119;-89
2024/02/17 02:23:21;;;;;;;7.80;5.30;;;5.50;64.90;;;;;;5096673;28;20036;-91
2024/02/17 02:25:54;;;;;;;12.27;6.15;;;5.60;65.00;;;;;;5056138;28;20032;-89
2024/02/17 02:28:21;;;;;;;8.95;5.30;;;5.60;64.90;;;;;;5084910;28;20067;-89
2024/02/17 02:30:47;;;;;;;8.00;5.43;;;5.50;65.00;;;;;;5067032;28;20517;-89
2024/02/17 02:33:14;;;;;;;8.63;5.60;;;5.60;64.90;;;;;;5080280;28;20036;-90
2024/02/17 02:35:40;;;;;;;9.07;5.05;;;5.50;64.90;;;;;;5077124;28;20487;-86
2024/02/17 02:38:06;;;;;;;7.90;5.35;;;5.60;65.00;;;;;;5095118;28;20043;-81
2024/02/17 02:40:32;;;;;;;8.80;5.47;;;5.60;65.10;;;;;;5081257;28;20028;-87
2024/02/17 02:42:58;;;;;;;7.15;5.25;;;5.60;65.00;;;;;;5096672;28;20030;-86
2024/02/17 02:45:25;;;;;;;9.70;5.32;;;5.60;64.90;;;;;;5067450;28;20032;-89
2024/02/17 02:47:51;;;;;;;8.52;5.30;;;5.60;65.00;;;;;;5090866;28;20414;-83
2024/02/17 02:50:17;;;;;;;7.75;4.78;;;5.50;64.70;;;;;;5082407;28;20829;-82
2024/02/17 02:52:46;;;;;;;9.15;5.40;;;5.60;65.40;;;;;;5065609;28;20509;-83
2024/02/17 02:55:12;;;;;;;8.60;5.35;;;5.60;64.70;;;;;;5077504;28;20028;-83
2024/02/17 02:57:38;;;;;;;7.10;5.10;;;5.50;64.60;;;;;;5079094;28;20622;-83
2024/02/17 03:00:04;;;;;;;8.35;4.88;;;5.50;64.60;;;;;;5065909;28;20057;-83
2024/02/17 03:02:31;;;;;;;9.23;5.82;;;5.60;64.70;;;;;;5079128;28;20036;-84
2024/02/17 03:04:57;;;;;;;8.13;5.43;;;5.60;64.70;;;;;;5077286;28;20039;-83
2024/02/17 03:07:23;;;;;;;7.38;5.05;;;5.50;64.60;;;;;;5078184;28;20036;-84
2024/02/17 03:09:49;;;;;;;9.05;5.45;;;5.50;64.50;;;;;;5077865;28;20029;-83
2024/02/17 03:12:15;;;;;;;8.02;5.07;;;5.60;64.70;;;;;;5076412;28;20036;-82
2024/02/17 03:14:42;;;;;;;7.53;5.32;;;5.50;64.70;;;;;;5094188;28;20036;-84
2024/02/17 03:17:08;;;;;;;6.40;5.00;;;5.60;64.60;;;;;;5093374;28;20057;-85
2024/02/17 03:19:34;;;;;;;10.68;5.70;;;5.50;64.60;;;;;;5076730;28;20710;-82
2024/02/17 03:22:00;;;;;;;7.90;5.65;;;5.60;64.70;;;;;;5078047;28;20457;-82
2024/02/17 03:24:26;;;;;;;8.90;5.28;;;5.50;64.50;;;;;;5095002;28;20040;-84
2024/02/17 03:26:52;;;;;;;7.85;5.50;;;5.60;64.70;;;;;;5065115;28;20050;-84
2024/02/17 03:29:19;;;;;;;8.85;5.55;;;5.50;64.60;;;;;;5093507;28;20047;-82
2024/02/17 03:31:45;;;;;;;9.13;5.45;;;5.50;64.60;;;;;;5078083;28;20039;-84
2024/02/17 03:34:11;;;;;;;8.45;4.80;;;5.50;64.60;;;;;;5060425;28;20126;-84
2024/02/17 03:36:37;;;;;;;8.35;5.03;;;5.50;64.50;;;;;;5060552;28;20029;-89
2024/02/17 03:39:06;;;;;;;7.25;5.07;;;5.50;64.70;;;;;;5077704;28;20383;-88
2024/02/17 03:41:32;;;;;;;7.72;5.20;;;5.60;64.80;;;;;;5079853;28;20260;-87
2024/02/17 03:43:58;;;;;;;6.88;5.10;;;5.50;64.80;;;;;;5079224;28;20047;-84
2024/02/17 03:46:24;;;;;;;8.50;5.57;;;5.50;64.70;;;;;;5078723;28;20039;-83
2024/02/17 03:48:50;;;;;;;10.00;5.70;;;5.50;64.70;;;;;;5078497;28;20059;-84
2024/02/17 03:51:16;;;;;;;8.18;5.30;;;5.50;64.70;;;;;;5076402;28;20024;-83
2024/02/17 03:53:42;;;;;;;7.75;5.47;;;5.50;64.70;;;;;;5060254;28;20024;-90
2024/02/17 03:56:10;;;;;;;10.10;5.57;;;5.50;64.50;;;;;;5077021;28;20514;-90
2024/02/17 03:58:36;;;;;;;8.32;5.05;;;5.50;64.60;;;;;;5078670;28;20029;-88
2024/02/17 04:01:03;;;;;;;10.23;5.65;;;5.50;64.50;;;;;;5082877;28;20174;-89
2024/02/17 04:03:30;;;;;;;8.80;5.72;;;5.50;64.60;;;;;;5095140;28;20024;-90
2024/02/17 04:05:56;;;;;;;8.95;5.82;;;5.50;64.50;;;;;;5077507;28;20127;-87
2024/02/17 04:08:22;;;;;;;9.32;5.70;;;5.60;64.50;;;;;;5077882;28;20040;-88
2024/02/17 04:10:48;;;;;;;8.35;5.05;;;5.50;64.30;;;;;;5060036;28;20047;-87
2024/02/17 04:13:14;;;;;;;7.90;5.60;;;5.60;64.40;;;;;;5079265;28;20036;-85
2024/02/17 04:15:40;;;;;;;8.10;5.13;;;5.50;64.40;;;;;;5094925;28;20063;-93
2024/02/17 04:18:08;;;;;;;7.32;5.07;;;5.50;64.30;;;;;;5079479;28;20044;-91
2024/02/17 04:20:38;;;;;;;8.30;5.57;;;5.50;64.40;;;;;;5066257;28;20036;-84
2024/02/17 04:23:05;;;;;;;8.52;5.13;;;5.50;64.50;;;;;;5090951;28;20032;-93
2024/02/17 04:25:32;;;;;;;8.75;5.32;;;5.50;64.50;;;;;;5093680;28;20036;-89
2024/02/17 04:28:06;;;;;;;8.80;5.32;;;5.50;64.50;;;;;;5095942;28;20036;-80
2024/02/17 04:30:33;;;;;;;8.75;5.05;;;5.50;64.40;;;;;;5089735;28;20035;-93
2024/02/17 04:32:59;;;;;;;8.68;5.57;;;5.60;64.60;;;;;;5079839;28;20085;-88
2024/02/17 04:35:25;;;;;;;8.82;5.40;;;5.50;64.50;;;;;;5080900;28;20040;-91
2024/02/17 04:37:53;;;;;;;6.97;5.38;;;5.60;64.60;;;;;;5078980;28;20032;-91
2024/02/17 04:40:20;;;;;;;8.30;5.07;;;5.50;64.50;;;;;;5060311;28;20096;-90
2024/02/17 04:42:46;;;;;;;7.82;5.32;;;5.50;64.60;;;;;;5078158;28;20099;-90
2024/02/17 04:45:12;;;;;;;7.00;5.10;;;5.50;64.70;;;;;;5077297;28;20024;-87
2024/02/17 04:47:39;;;;;;;7.93;5.22;;;5.50;64.60;;;;;;5076128;28;20032;-85
2024/02/17 04:50:05;;;;;;;6.95;4.95;;;5.60;64.80;;;;;;5076022;28;20127;-87
2024/02/17 04:52:31;;;;;;;8.57;5.68;;;5.60;64.70;;;;;;5096947;28;20082;-88
2024/02/17 04:54:58;;;;;;;7.97;5.32;;;5.50;64.60;;;;;;5061409;28;20034;-86
2024/02/17 04:57:24;;;;;;;8.35;5.55;;;5.50;64.70;;;;;;5094401;28;20032;-88
2024/02/17 04:59:50;;;;;;;8.63;5.57;;;5.50;65.00;;;;;;5077112;28;20039;-86
2024/02/17 05:02:16;;;;;;;7.22;5.38;;;5.60;64.90;;;;;;5077073;28;20122;-82
2024/02/17 05:04:42;;;;;;;8.15;4.85;;;5.50;64.50;;;;;;5076731;28;20035;-89
2024/02/17 05:07:08;;;;;;;8.93;5.65;;;5.60;64.50;;;;;;5075205;28;20024;-87
2024/02/17 05:09:36;;;;;;;9.05;6.00;;;5.60;64.50;;;;;;5078988;28;20062;-83
2024/02/17 05:12:02;;;;;;;8.68;5.20;;;5.60;64.40;;;;;;5093480;28;20028;-86
2024/02/17 05:14:28;;;;;;;7.57;5.30;;;5.50;64.50;;;;;;5076732;28;20036;-86
2024/02/17 05:16:54;;;;;;;10.43;5.65;;;5.60;64.60;;;;;;5077054;28;20119;-93
2024/02/17 05:19:20;;;;;;;8.15;5.25;;;5.60;64.70;;;;;;5069618;28;20399;-86
2024/02/17 05:21:46;;;;;;;7.03;4.97;;;5.50;64.50;;;;;;5077203;28;20024;-88
2024/02/17 05:24:12;;;;;;;7.72;5.55;;;5.60;64.60;;;;;;5075654;28;20036;-89
2024/02/17 05:26:39;;;;;;;7.45;4.95;;;5.60;64.60;;;;;;5074746;28;20035;-87
2024/02/17 05:29:06;;;;;;;9.43;5.75;;;5.60;64.50;;;;;;5077102;28;20131;-92
2024/02/17 05:31:33;;;;;;;7.75;5.55;;;5.60;64.60;;;;;;5076702;28;20093;-83
2024/02/17 05:34:00;;;;;;;8.40;5.28;;;5.60;64.60;;;;;;5091820;28;20034;-91
2024/02/17 05:36:27;;;;;;;9.88;5.38;;;5.60;64.60;;;;;;5076434;28;20048;-85
2024/02/17 05:38:53;;;;;;;7.43;5.30;;;5.60;64.50;;;;;;5075237;28;20043;-87
2024/02/17 05:41:38;;;;;;;9.73;5.65;;;5.60;64.30;;;;;;5074257;28;20040;-84
2024/02/17 05:44:04;;;;;;;8.80;6.07;;;5.60;64.30;;;;;;5075245;28;20072;-84
2024/02/17 05:46:31;;;;;;;10.80;6.40;;;5.60;64.30;;;;;;5074468;28;20118;-84
2024/02/17 05:48:57;;;;;;;9.00;5.78;;;5.60;64.30;;;;;;5058413;28;20043;-86
2024/02/17 05:51:24;;;;;;;9.27;5.75;;;5.60;64.20;;;;;;5076682;28;20037;-82
2024/02/17 05:53:50;;;;;;;8.70;5.72;;;5.60;64.10;;;;;;5094669;28;20044;-85
2024/02/17 05:56:16;;;;;;;11.30;6.35;;;5.60;64.10;;;;;;5095256;28;20036;-83
2024/02/17 05:58:42;;;;;;;8.40;5.80;;;5.60;64.20;;;;;;5080354;28;20035;-86
2024/02/17 06:01:08;;;;;;;10.02;6.55;;;5.60;64.30;;;;;;5095438;28;20032;-83
2024/02/17 06:03:34;;;;;;;10.60;6.50;;;5.60;64.20;;;;;;5080617;28;20032;-81
2024/02/17 06:08:45;;;;;;;9.18;5.60;;;5.60;64.10;;;;;;5079726;28;20059;-86
2024/02/17 06:11:11;;;;;;;9.93;6.15;;;5.60;64.00;;;;;;5080624;28;20043;-81
2024/02/17 06:13:37;;;;;;;8.90;6.07;;;5.60;64.00;;;;;;5077788;28;20029;-82
2024/02/17 06:16:05;;;;;;;11.25;6.68;;;5.60;63.70;;;;;;5080480;28;20035;-83
2024/02/17 06:21:20;;;;;;;12.88;6.50;;;5.60;63.70;;;;;;5079580;28;20054;-82
2024/02/17 06:23:51;;;;;;;10.35;6.88;;;5.60;63.80;;;;;;5080130;28;20070;-85
2024/02/17 06:26:21;;;;;;;8.98;6.28;;;5.60;64.00;;;;;;5077810;28;20032;-83
2024/02/17 06:28:47;;;;;;;10.38;6.65;;;5.60;63.90;;;;;;5096016;28;20040;-83
2024/02/17 06:31:14;;;;;;;10.27;6.65;;;5.60;64.10;;;;;;5080011;28;20063;-87
2024/02/17 06:33:40;;;;;;;9.68;6.25;;;5.60;64.10;;;;;;5075737;28;20032;-81
2024/02/17 06:36:06;;;;;;;9.65;6.63;;;5.70;64.10;;;;;;5078995;28;20036;-83
2024/02/17 06:38:32;;;;;;;11.02;6.13;;;5.70;64.30;;;;;;5078761;28;20073;-82
2024/02/17 06:40:58;;;;;;;10.43;6.40;;;5.70;64.20;;;;;;5092661;28;20394;-83
2024/02/17 06:43:24;;;;;;;8.98;6.28;;;5.70;64.50;;;;;;5069315;28;20067;-83
2024/02/17 06:45:50;;;;;;;9.60;6.15;;;5.70;64.30;;;;;;5094064;28;20025;-83
2024/02/17 06:48:16;;;;;;;9.35;6.38;;;5.70;64.30;;;;;;5093979;28;20067;-81
2024/02/17 06:50:42;;;;;;;11.13;6.57;;;5.70;64.50;;;;;;5078175;28;20044;-78
2024/02/17 06:53:08;;;;;;;9.98;6.50;;;5.70;64.60;;;;;;5093610;28;20041;-80
2024/02/17 06:55:35;;;;;;;10.40;6.05;;;5.70;64.70;;;;;;5079190;28;20032;-80
2024/02/17 06:58:02;;;;;;;10.60;6.95;;;5.80;64.90;;;;;;5078542;28;20044;-81
2024/02/17 07:00:28;;;;;;;11.32;7.00;;;5.70;64.80;;;;;;5076979;28;20040;-79
2024/02/17 07:02:55;;;;;;;10.65;6.40;;;5.70;65.30;;;;;;5078431;28;20094;-80
2024/02/17 07:05:21;;;;;;;10.35;6.78;;;5.80;65.40;;;;;;5078713;28;20580;-80
2024/02/17 07:07:47;;;;;;;12.75;7.10;;;5.80;65.60;;;;;;5078447;28;20040;-80
2024/02/17 07:10:13;;;;;;;11.30;7.28;;;5.80;66.20;;;;;;5077928;28;20039;-82
2024/02/17 07:12:39;;;;;;;8.63;5.97;;;5.80;66.40;;;;;;5079455;28;20261;-81
2024/02/17 07:15:05;;;;;;;10.57;6.72;;;5.80;66.50;;;;;;5095142;28;20039;-83
2024/02/17 07:17:31;;;;;;;11.00;6.45;;;5.80;66.60;;;;;;5077925;28;20102;-80
2024/02/17 07:19:57;;;;;;;14.52;7.90;;;5.90;66.50;;;;;;5076486;28;20500;-81
2024/02/17 07:22:23;;;;;;;12.40;7.95;;;5.90;66.20;;;;;;5093818;28;20123;-81
2024/02/17 07:24:51;;;;;;;12.88;7.43;;;6.00;66.30;;;;;;5076942;28;20170;-82
2024/02/17 07:27:17;;;;;;;11.80;7.30;;;5.90;66.20;;;;;;5076442;28;20038;-84
2024/02/17 07:29:43;;;;;;;11.27;6.95;;;6.00;66.30;;;;;;5064144;28;20025;-82
2024/02/17 07:32:10;;;;;;;11.60;6.82;;;6.00;66.20;;;;;;5078378;28;20032;-84
2024/02/17 07:34:38;;;;;;;13.32;7.85;;;6.00;66.40;;;;;;5059239;28;20570;-82
2024/02/17 07:37:04;;;;;;;10.23;7.00;;;6.00;66.40;;;;;;5093146;28;20071;-82
2024/02/17 07:39:42;;;;;;;11.63;6.93;;;6.00;66.20;;;;;;5079238;28;20036;-81
2024/02/17 07:42:08;;;;;;;11.10;7.30;;;6.00;66.20;;;;;;5080097;28;20033;-81
2024/02/17 07:44:35;;;;;;;11.55;7.00;;;6.10;66.30;;;;;;5077895;28;20034;-83
2024/02/17 07:47:03;;;;;;;11.98;7.30;;;6.10;66.40;;;;;;5076644;28;20036;-81
2024/02/17 07:49:31;;;;;;;9.65;6.93;;;6.10;66.60;;;;;;5075896;28;20044;-80
2024/02/17 07:51:57;;;;;;;9.02;6.60;;;6.10;66.80;;;;;;5074667;28;20512;-80
2024/02/17 07:54:23;;;;;;;12.68;7.43;;;6.10;66.70;;;;;;5063882;28;20036;-82
2024/02/17 07:56:49;;;;;;;13.98;6.80;;;6.20;66.80;;;;;;5080677;28;20041;-82
2024/02/17 07:59:16;;;;;;;11.95;7.18;;;6.20;66.80;;;;;;5075565;28;20127;-82
2024/02/17 08:01:42;;;;;;;12.70;7.47;;;6.20;67.20;;;;;;5060027;28;20047;-84
2024/02/17 08:04:08;;;;;;;8.55;5.95;;;6.20;67.30;;;;;;5081640;28;20137;-83
2024/02/17 08:06:34;;;;;;;11.82;7.30;;;6.30;67.20;;;;;;5092385;28;20119;-84
2024/02/17 08:09:00;;;;;;;10.40;6.95;;;6.30;67.20;;;;;;5093201;28;20036;-84
2024/02/17 08:11:26;;;;;;;8.32;6.25;;;6.30;67.00;;;;;;5077544;28;20102;-85
2024/02/17 08:13:52;;;;;;;11.90;6.25;;;6.30;66.70;;;;;;5075781;28;20394;-83
2024/02/17 08:16:18;;;;;;;9.93;5.88;;;6.30;66.50;;;;;;5092782;28;20027;-86
2024/02/17 08:18:45;;;;;;;16.05;6.85;;;6.40;67.10;;;;;;5094229;28;20052;-84
2024/02/17 08:21:13;;;;;;;9.15;5.82;;;6.40;66.40;;;;;;5058631;28;20541;-82
2024/02/17 08:23:41;;;;;;;10.18;6.53;;;6.40;66.30;;;;;;5091365;28;20044;-81
2024/02/17 08:26:10;;;;;;;10.05;6.47;;;6.40;66.40;;;;;;5074918;28;20037;-81
2024/02/17 08:28:37;;;;;;;11.50;6.93;;;6.50;66.60;;;;;;5081529;28;20048;-80
2024/02/17 08:31:04;;;;;;;11.00;6.88;;;6.50;66.60;;;;;;5072825;28;20027;-81
2024/02/17 08:33:30;;;;;;;10.07;6.07;;;6.50;66.50;;;;;;5076150;28;20028;-80
2024/02/17 08:35:56;;;;;;;10.77;7.10;;;6.60;66.60;;;;;;5075463;28;20771;-80
2024/02/17 08:38:22;;;;;;;8.15;5.40;;;6.60;66.80;;;;;;5062614;28;20032;-79
2024/02/17 08:40:48;;;;;;;9.52;5.82;;;6.60;66.60;;;;;;5091454;28;20028;-80
2024/02/17 08:43:14;;;;;;;8.98;5.65;;;6.70;66.60;;;;;;5074137;28;20032;-83
2024/02/17 08:45:40;;;;;;;8.35;5.55;;;6.70;66.40;;;;;;5075051;28;20386;-83
2024/02/17 08:48:06;;;;;;;7.63;5.20;;;6.70;65.90;;;;;;5058152;28;20039;-84
2024/02/17 08:50:32;;;;;;;7.75;5.15;;;6.70;65.70;;;;;;5073217;28;20084;-81
2024/02/17 08:52:58;;;;;;;8.52;5.47;;;6.70;65.70;;;;;;5092165;28;20024;-83
2024/02/17 08:55:24;;;;;;;7.32;5.38;;;6.70;65.30;;;;;;5075687;28;20028;-82
2024/02/17 08:57:50;;;;;;;7.43;4.78;;;6.80;65.20;;;;;;5076385;28;20029;-85
2024/02/17 09:00:19;;;;;;;7.68;5.05;;;6.80;64.80;;;;;;5040684;28;20434;-81
2024/02/17 09:02:45;;;;;;;8.13;5.55;;;6.80;64.60;;;;;;5074941;28;20545;-82
2024/02/17 09:05:11;;;;;;;7.35;5.03;;;6.80;64.10;;;;;;5057518;28;20140;-82
2024/02/17 09:07:37;;;;;;;6.63;5.00;;;6.80;63.80;;;;;;5076050;28;20127;-81
2024/02/17 09:10:03;;;;;;;8.23;5.30;;;6.80;63.60;;;;;;5079249;28;20092;-83
2024/02/17 09:12:29;;;;;;;7.65;4.88;;;6.80;63.70;;;;;;5063034;28;20028;-82
2024/02/17 09:14:55;;;;;;;7.80;5.22;;;6.90;63.40;;;;;;5077060;28;20036;-82
2024/02/17 09:17:21;;;;;;;7.72;5.03;;;6.90;63.20;;;;;;5046299;28;20363;-82
2024/02/17 09:22:32;;;;;;;7.78;5.55;;;6.90;62.80;;;;;;5075426;28;20324;-80
2024/02/17 09:24:58;;;;;;;6.70;4.80;;;6.90;62.70;;;;;;5074642;28;20032;-80
2024/02/17 09:27:24;;;;;;;8.18;5.35;;;6.90;63.30;;;;;;5090879;28;20090;-81
2024/02/17 09:29:50;;;;;;;7.38;4.97;;;7.00;63.30;;;;;;5076750;28;20033;-83
2024/02/17 09:32:16;;;;;;;10.45;5.38;;;7.00;64.10;;;;;;5058197;28;20039;-81
2024/02/17 09:34:42;;;;;;;7.68;5.10;;;7.00;64.50;;;;;;5076217;28;20422;-82
2024/02/17 09:37:10;;;;;;;8.15;5.50;;;7.00;64.80;;;;;;5075999;28;20028;-83
2024/02/17 09:39:40;;;;;;;8.80;5.25;;;7.10;65.00;;;;;;5076857;28;20029;-83
2024/02/17 09:42:07;;;;;;;7.75;5.45;;;7.10;65.20;;;;;;5057975;28;20032;-83
2024/02/17 09:44:33;;;;;;;8.18;5.30;;;7.10;65.20;;;;;;5091130;28;20031;-82
2024/02/17 09:46:59;;;;;;;7.82;4.95;;;7.10;65.00;;;;;;5073528;28;20551;-85
2024/02/17 09:49:26;;;;;;;9.40;5.28;;;7.10;64.90;;;;;;5073325;28;20057;-81
2024/02/17 09:51:53;;;;;;;7.28;5.03;;;7.20;64.90;;;;;;5072425;28;20024;-80
2024/02/17 09:54:21;;;;;;;8.38;4.93;;;7.20;64.70;;;;;;5089163;28;20917;-84
2024/02/17 09:56:51;;;;;;;8.07;4.72;;;7.20;64.40;;;;;;5074314;28;20036;-85
2024/02/17 09:59:17;;;;;;;9.25;5.13;;;7.20;64.00;;;;;;5058352;28;20041;-83
2024/02/17 10:01:45;;;;;;;13.35;5.38;;;7.20;63.60;;;;;;5074146;28;20032;-85
2024/02/17 10:04:11;;;;;;;9.75;5.95;;;7.20;63.50;;;;;;5074404;28;20040;-88
2024/02/17 10:06:37;;;;;;;16.65;6.63;;;7.20;63.70;;;;;;5057537;28;20033;-88
2024/02/17 10:09:03;;;;;;;16.77;7.30;;;7.20;63.60;;;;;;5092131;28;20406;-86
2024/02/17 10:11:33;;;;;;;16.02;7.10;;;7.20;63.60;;;;;;5073221;28;20029;-86
2024/02/17 10:14:04;;;;;;;18.35;7.65;;;7.20;63.60;;;;;;5074541;28;20119;-88
2024/02/17 10:16:32;;;;;;;16.17;7.28;;;7.30;63.60;;;;;;5061568;28;20173;-85
2024/02/17 10:19:02;;;;;;;16.77;7.45;;;7.30;63.60;;;;;;5057183;28;20547;-84
2024/02/17 10:21:28;;;;;;;14.98;7.32;;;7.30;63.70;;;;;;5076018;28;20044;-86
2024/02/17 10:23:55;;;;;;;13.32;6.43;;;7.40;63.70;;;;;;5077478;28;20074;-84
2024/02/17 10:26:21;;;;;;;10.52;6.75;;;7.40;63.60;;;;;;5080812;28;20036;-85
2024/02/17 10:28:58;;;;;;;11.93;6.43;;;7.40;63.50;;;;;;5094407;28;20041;-88
2024/02/17 10:31:27;;;;;;;10.00;6.28;;;7.40;63.60;;;;;;5077341;28;20036;-85
2024/02/17 10:33:53;;;;;;;12.38;6.65;;;7.40;63.80;;;;;;5076665;28;20547;-89
2024/02/17 10:36:22;;;;;;;14.82;7.35;;;7.40;65.00;;;;;;5075049;28;20040;-89
2024/02/17 10:38:50;;;;;;;10.23;6.38;;;7.50;65.70;;;;;;5061522;28;20039;-84
2024/02/17 10:41:18;;;;;;;10.25;6.13;;;7.50;66.00;;;;;;5077411;28;20029;-84
2024/02/17 10:43:46;;;;;;;8.20;5.45;;;7.50;66.20;;;;;;5083143;28;20105;-84
2024/02/17 10:46:24;;;;;;;8.90;6.15;;;7.60;66.30;;;;;;5077592;28;20029;-84
2024/02/17 10:49:05;;;;;;;10.32;5.55;;;7.60;66.50;;;;;;5078049;28;20032;-83
2024/02/17 10:51:31;;;;;;;10.40;5.82;;;7.60;66.20;;;;;;5077224;28;20448;-84
2024/02/17 10:54:04;;;;;;;7.88;5.25;;;7.60;66.00;;;;;;5095228;28;20036;-83
2024/02/17 10:56:31;;;;;;;10.15;6.07;;;7.70;65.70;;;;;;5060435;28;20029;-89
2024/02/17 10:58:59;;;;;;;11.05;5.70;;;7.70;65.40;;;;;;5061820;28;20043;-86
2024/02/17 11:01:27;;;;;;;8.88;5.03;;;7.70;65.30;;;;;;5060956;28;20028;-86
2024/02/17 11:03:54;;;;;;;7.63;5.45;;;7.70;65.20;;;;;;5079733;28;20020;-82
2024/02/17 11:06:21;;;;;;;9.93;5.38;;;7.70;64.90;;;;;;5060929;28;20041;-86
2024/02/17 11:08:47;;;;;;;7.85;4.90;;;7.70;64.80;;;;;;5078298;28;20498;-88
2024/02/17 11:11:27;;;;;;;7.00;4.63;;;7.70;64.50;;;;;;5077823;28;20032;-86
2024/02/17 11:13:55;;;;;;;7.45;4.82;;;7.70;64.40;;;;;;5065840;28;20056;-83
2024/02/17 11:16:23;;;;;;;9.52;5.32;;;7.80;64.10;;;;;;5081660;28;20028;-85
2024/02/17 11:18:53;;;;;;;10.73;5.07;;;7.80;63.90;;;;;;5081029;28;20044;-83
2024/02/17 11:21:30;;;;;;;7.65;5.18;;;7.80;63.70;;;;;;5079025;28;20108;-83
2024/02/17 11:24:00;;;;;;;8.57;5.05;;;7.80;63.60;;;;;;5076716;28;20041;-83
2024/02/17 11:26:26;;;;;;;7.95;5.00;;;7.80;63.50;;;;;;5059485;28;20037;-84
2024/02/17 11:28:52;;;;;;;8.35;5.15;;;7.80;63.50;;;;;;5059835;28;20040;-84
2024/02/17 11:31:27;;;;;;;7.60;4.50;;;7.80;63.50;;;;;;5060933;28;20577;-84
2024/02/17 11:34:03;;;;;;;7.55;4.50;;;7.80;63.60;;;;;;5094396;28;20028;-84
2024/02/17 11:36:30;;;;;;;;;;;7.80;64.00;;;;;;5077437;28;20137;-84
2024/02/17 11:38:59;;;;;;;6.82;4.40;;;7.90;65.00;;;;;;5079221;28;20567;-83
2024/02/17 11:41:26;;;;;;;6.90;4.53;;;7.90;65.60;;;;;;5077714;28;20028;-84
2024/02/17 11:43:54;;;;;;;7.53;4.80;;;7.90;65.80;;;;;;5093951;28;20418;-85
2024/02/17 11:46:23;;;;;;;6.80;4.47;;;7.90;65.90;;;;;;5060302;28;20028;-84
2024/02/17 11:48:49;;;;;;;7.15;4.38;;;7.90;65.90;;;;;;5074539;28;20538;-85
2024/02/17 11:51:22;;;;;;;7.97;4.40;;;7.90;66.00;;;;;;5078893;28;20089;-83
2024/02/17 11:53:52;;;;;;;6.82;4.25;;;7.90;66.10;;;;;;5059813;28;20066;-85
2024/02/17 11:56:20;;;;;;;7.05;4.57;;;7.90;66.00;;;;;;5092296;28;20032;-84
2024/02/17 11:58:46;;;;;;;7.22;4.40;;;7.90;65.70;;;;;;5060607;28;20054;-84
2024/02/17 12:01:13;;;;;;;8.27;4.70;;;7.90;65.60;;;;;;5060351;28;20498;-84
2024/02/17 12:03:42;;;;;;;7.20;4.70;;;8.00;65.40;;;;;;5077412;28;20486;-84
2024/02/17 12:06:09;;;;;;;7.07;3.92;;;8.00;65.20;;;;;;5076391;28;20032;-84
2024/02/17 12:08:36;;;;;;;6.30;4.10;;;8.00;65.10;;;;;;5090857;28;20060;-84
2024/02/17 12:11:02;;;;;;;7.25;4.47;;;8.00;65.00;;;;;;5092503;28;20032;-83
2024/02/17 12:13:28;;;;;;;5.43;4.20;;;7.90;64.70;;;;;;5042275;28;20028;-83
2024/02/17 12:16:04;;;;;;;6.57;4.15;;;8.00;64.60;;;;;;5092760;28;20475;-84
2024/02/17 12:18:30;;;;;;;6.40;4.10;;;8.00;64.50;;;;;;5094923;28;20052;-85
2024/02/17 12:20:56;;;;;;;7.40;4.22;;;8.00;64.30;;;;;;5043427;28;20083;-85
2024/02/17 12:23:22;;;;;;;5.63;3.78;;;8.00;64.30;;;;;;5075365;28;20043;-83
2024/02/17 12:25:51;;;;;;;4.80;3.60;;;8.00;64.10;;;;;;5058236;28;20111;-85
2024/02/17 12:28:17;;;;;;;7.40;4.00;;;8.00;64.10;;;;;;5075824;28;20067;-84
2024/02/17 12:30:48;;;;;;;6.53;4.10;;;8.00;64.10;;;;;;5076639;28;20398;-84
2024/02/17 12:33:19;;;;;;;6.55;3.60;;;8.00;63.90;;;;;;5082023;28;20114;-85
2024/02/17 12:35:47;;;;;;;6.05;3.40;;;8.00;64.00;;;;;;5076006;28;20044;-84
2024/02/17 12:38:17;;;;;;;6.03;3.80;;;8.00;65.20;;;;;;5075947;28;20473;-83
2024/02/17 12:40:45;;;;;;;5.68;3.45;;;8.00;65.40;;;;;;5054374;28;20040;-84
2024/02/17 12:43:20;;;;;;;6.57;3.92;;;8.00;65.70;;;;;;5079679;28;20024;-84
2024/02/17 12:45:47;;;;;;;8.20;4.00;;;8.00;66.50;;;;;;5043102;28;20032;-84
2024/02/17 12:48:13;;;;;;;7.70;3.88;;;8.00;65.80;;;;;;5057488;28;20036;-84
2024/02/17 12:50:41;;;;;;;7.55;4.57;;;8.00;66.00;;;;;;5074429;28;20086;-84
2024/02/17 12:53:20;;;;;;;6.63;4.13;;;8.00;66.00;;;;;;5090980;28;20029;-85
2024/02/17 12:55:48;;;;;;;7.38;4.18;;;8.00;66.00;;;;;;5059127;28;20029;-83
2024/02/17 12:58:15;;;;;;;5.78;3.83;;;8.00;66.00;;;;;;5074857;28;20032;-83
2024/02/17 13:00:45;;;;;;;5.43;3.78;;;8.00;65.80;;;;;;5091977;28;20032;-84
2024/02/17 13:03:16;;;;;;;5.55;3.75;;;8.00;66.40;;;;;;5061558;28;20128;-84